sensor_id;sensor_type;location;lat;lon;timestamp;P1;durP1;ratioP1;P2;durP2;ratioP2
47599;SDS011;33323;52.124;6.018;2023-04-24T00:02:00;7.30;;;2.75;;
47599;SDS011;33323;52.124;6.018;2023-04-24T00:04:27;3.30;;;2.60;;
47599;SDS011;33323;52.124;6.018;2023-04-24T00:06:54;3.00;;;2.28;;
47599;SDS011;33323;52.124;6.018;2023-04-24T00:09:23;3.38;;;2.97;;
47599;SDS011;33323;52.124;6.018;2023-04-24T00:11:50;5.32;;;3.25;;
47599;SDS011;33323;52.124;6.018;2023-04-24T00:14:18;11.43;;;4.00;;
47599;SDS011;33323;52.124;6.018;2023-04-24T00:16:45;4.85;;;3.20;;
47599;SDS011;33323;52.124;6.018;2023-04-24T00:19:12;5.75;;;3.63;;
47599;SDS011;33323;52.124;6.018;2023-04-24T00:21:39;12.88;;;3.90;;
47599;SDS011;33323;52.124;6.018;2023-04-24T00:24:07;4.32;;;3.45;;
47599;SDS011;33323;52.124;6.018;2023-04-24T00:26:38;4.55;;;3.30;;
47599;SDS011;33323;52.124;6.018;2023-04-24T00:29:05;4.45;;;3.40;;
47599;SDS011;33323;52.124;6.018;2023-04-24T00:31:32;3.88;;;3.05;;
47599;SDS011;33323;52.124;6.018;2023-04-24T00:34:01;5.60;;;3.75;;
47599;SDS011;33323;52.124;6.018;2023-04-24T00:36:29;8.52;;;4.00;;
47599;SDS011;33323;52.124;6.018;2023-04-24T00:38:57;5.05;;;3.30;;
47599;SDS011;33323;52.124;6.018;2023-04-24T00:41:24;4.97;;;3.45;;
47599;SDS011;33323;52.124;6.018;2023-04-24T00:43:52;3.97;;;3.28;;
47599;SDS011;33323;52.124;6.018;2023-04-24T00:46:19;4.75;;;3.80;;
47599;SDS011;33323;52.124;6.018;2023-04-24T00:48:47;6.22;;;3.42;;
47599;SDS011;33323;52.124;6.018;2023-04-24T00:51:14;5.75;;;3.17;;
47599;SDS011;33323;52.124;6.018;2023-04-24T00:53:42;3.33;;;2.65;;
47599;SDS011;33323;52.124;6.018;2023-04-24T00:56:09;4.07;;;2.88;;
47599;SDS011;33323;52.124;6.018;2023-04-24T00:58:36;4.53;;;2.85;;
47599;SDS011;33323;52.124;6.018;2023-04-24T01:01:03;4.03;;;3.08;;
47599;SDS011;33323;52.124;6.018;2023-04-24T01:03:33;4.07;;;2.65;;
47599;SDS011;33323;52.124;6.018;2023-04-24T01:06:03;3.40;;;2.47;;
47599;SDS011;33323;52.124;6.018;2023-04-24T01:08:31;3.15;;;2.25;;
47599;SDS011;33323;52.124;6.018;2023-04-24T01:11:03;3.45;;;2.38;;
47599;SDS011;33323;52.124;6.018;2023-04-24T01:13:31;2.60;;;1.92;;
47599;SDS011;33323;52.124;6.018;2023-04-24T01:16:00;3.78;;;1.85;;
47599;SDS011;33323;52.124;6.018;2023-04-24T01:18:27;1.70;;;1.52;;
47599;SDS011;33323;52.124;6.018;2023-04-24T01:20:57;1.92;;;1.52;;
47599;SDS011;33323;52.124;6.018;2023-04-24T01:23:26;2.15;;;1.60;;
47599;SDS011;33323;52.124;6.018;2023-04-24T01:25:53;2.08;;;1.70;;
47599;SDS011;33323;52.124;6.018;2023-04-24T01:28:21;3.90;;;2.58;;
47599;SDS011;33323;52.124;6.018;2023-04-24T01:30:48;2.78;;;2.35;;
47599;SDS011;33323;52.124;6.018;2023-04-24T01:33:15;3.47;;;2.47;;
47599;SDS011;33323;52.124;6.018;2023-04-24T01:35:42;3.60;;;2.38;;
47599;SDS011;33323;52.124;6.018;2023-04-24T01:38:09;1.70;;;1.48;;
47599;SDS011;33323;52.124;6.018;2023-04-24T01:40:37;1.42;;;1.30;;
47599;SDS011;33323;52.124;6.018;2023-04-24T01:43:04;2.30;;;0.90;;
47599;SDS011;33323;52.124;6.018;2023-04-24T01:45:31;1.45;;;0.85;;
47599;SDS011;33323;52.124;6.018;2023-04-24T01:47:59;3.70;;;1.10;;
47599;SDS011;33323;52.124;6.018;2023-04-24T01:50:27;2.03;;;0.70;;
47599;SDS011;33323;52.124;6.018;2023-04-24T01:52:54;1.50;;;0.80;;
47599;SDS011;33323;52.124;6.018;2023-04-24T01:55:21;0.73;;;0.68;;
47599;SDS011;33323;52.124;6.018;2023-04-24T01:57:48;0.55;;;0.50;;
47599;SDS011;33323;52.124;6.018;2023-04-24T02:00:17;0.93;;;0.65;;
47599;SDS011;33323;52.124;6.018;2023-04-24T02:02:44;1.13;;;0.93;;
47599;SDS011;33323;52.124;6.018;2023-04-24T02:05:14;1.80;;;0.90;;
47599;SDS011;33323;52.124;6.018;2023-04-24T02:07:41;1.70;;;0.90;;
47599;SDS011;33323;52.124;6.018;2023-04-24T02:10:08;1.20;;;0.88;;
47599;SDS011;33323;52.124;6.018;2023-04-24T02:12:41;4.35;;;1.35;;
47599;SDS011;33323;52.124;6.018;2023-04-24T02:15:08;3.15;;;1.45;;
47599;SDS011;33323;52.124;6.018;2023-04-24T02:17:36;2.00;;;1.40;;
47599;SDS011;33323;52.124;6.018;2023-04-24T02:20:04;1.88;;;1.27;;
47599;SDS011;33323;52.124;6.018;2023-04-24T02:22:34;2.15;;;1.23;;
47599;SDS011;33323;52.124;6.018;2023-04-24T02:25:01;2.05;;;1.65;;
47599;SDS011;33323;52.124;6.018;2023-04-24T02:27:29;1.85;;;1.40;;
47599;SDS011;33323;52.124;6.018;2023-04-24T02:29:56;1.70;;;1.10;;
47599;SDS011;33323;52.124;6.018;2023-04-24T02:32:23;1.42;;;1.10;;
47599;SDS011;33323;52.124;6.018;2023-04-24T02:34:50;1.58;;;1.15;;
47599;SDS011;33323;52.124;6.018;2023-04-24T02:37:17;1.80;;;1.00;;
47599;SDS011;33323;52.124;6.018;2023-04-24T02:39:44;2.15;;;1.25;;
47599;SDS011;33323;52.124;6.018;2023-04-24T02:42:11;1.77;;;1.38;;
47599;SDS011;33323;52.124;6.018;2023-04-24T02:44:38;2.13;;;1.77;;
47599;SDS011;33323;52.124;6.018;2023-04-24T02:47:05;3.80;;;1.65;;
47599;SDS011;33323;52.124;6.018;2023-04-24T02:49:32;3.00;;;2.03;;
47599;SDS011;33323;52.124;6.018;2023-04-24T02:51:59;2.47;;;1.70;;
47599;SDS011;33323;52.124;6.018;2023-04-24T02:54:26;4.22;;;2.35;;
47599;SDS011;33323;52.124;6.018;2023-04-24T02:56:53;3.58;;;2.13;;
47599;SDS011;33323;52.124;6.018;2023-04-24T02:59:20;3.85;;;2.60;;
47599;SDS011;33323;52.124;6.018;2023-04-24T03:01:47;4.55;;;2.65;;
47599;SDS011;33323;52.124;6.018;2023-04-24T03:04:14;4.85;;;3.55;;
47599;SDS011;33323;52.124;6.018;2023-04-24T03:06:42;9.02;;;3.40;;
47599;SDS011;33323;52.124;6.018;2023-04-24T03:09:09;5.53;;;3.35;;
47599;SDS011;33323;52.124;6.018;2023-04-24T03:11:36;8.90;;;3.70;;
47599;SDS011;33323;52.124;6.018;2023-04-24T03:14:03;4.53;;;3.15;;
47599;SDS011;33323;52.124;6.018;2023-04-24T03:16:30;5.82;;;2.90;;
47599;SDS011;33323;52.124;6.018;2023-04-24T03:18:57;4.85;;;3.08;;
47599;SDS011;33323;52.124;6.018;2023-04-24T03:21:27;6.30;;;3.63;;
47599;SDS011;33323;52.124;6.018;2023-04-24T03:23:55;5.20;;;3.33;;
47599;SDS011;33323;52.124;6.018;2023-04-24T03:26:22;4.97;;;3.50;;
47599;SDS011;33323;52.124;6.018;2023-04-24T03:29:01;10.13;;;5.05;;
47599;SDS011;33323;52.124;6.018;2023-04-24T03:31:29;5.47;;;4.30;;
47599;SDS011;33323;52.124;6.018;2023-04-24T03:33:56;6.80;;;4.22;;
47599;SDS011;33323;52.124;6.018;2023-04-24T03:36:23;8.40;;;4.78;;
47599;SDS011;33323;52.124;6.018;2023-04-24T03:38:53;8.85;;;5.20;;
47599;SDS011;33323;52.124;6.018;2023-04-24T03:41:24;8.93;;;5.63;;
47599;SDS011;33323;52.124;6.018;2023-04-24T03:44:13;10.55;;;5.05;;
47599;SDS011;33323;52.124;6.018;2023-04-24T03:46:41;10.23;;;5.45;;
47599;SDS011;33323;52.124;6.018;2023-04-24T03:49:08;6.85;;;4.60;;
47599;SDS011;33323;52.124;6.018;2023-04-24T03:51:39;9.52;;;4.85;;
47599;SDS011;33323;52.124;6.018;2023-04-24T03:54:14;5.70;;;4.10;;
47599;SDS011;33323;52.124;6.018;2023-04-24T03:56:41;7.85;;;4.32;;
47599;SDS011;33323;52.124;6.018;2023-04-24T03:59:08;9.43;;;5.00;;
47599;SDS011;33323;52.124;6.018;2023-04-24T04:01:36;7.57;;;4.75;;
47599;SDS011;33323;52.124;6.018;2023-04-24T04:04:09;7.95;;;5.05;;
47599;SDS011;33323;52.124;6.018;2023-04-24T04:06:38;9.77;;;6.15;;
47599;SDS011;33323;52.124;6.018;2023-04-24T04:09:05;8.75;;;6.03;;
47599;SDS011;33323;52.124;6.018;2023-04-24T04:11:34;11.65;;;7.32;;
47599;SDS011;33323;52.124;6.018;2023-04-24T04:14:01;11.13;;;7.85;;
47599;SDS011;33323;52.124;6.018;2023-04-24T04:16:30;16.33;;;8.70;;
47599;SDS011;33323;52.124;6.018;2023-04-24T04:19:01;14.05;;;9.15;;
47599;SDS011;33323;52.124;6.018;2023-04-24T04:21:29;16.60;;;9.45;;
47599;SDS011;33323;52.124;6.018;2023-04-24T04:24:11;19.35;;;11.05;;
47599;SDS011;33323;52.124;6.018;2023-04-24T04:26:42;25.08;;;12.73;;
47599;SDS011;33323;52.124;6.018;2023-04-24T04:29:21;26.35;;;13.93;;
47599;SDS011;33323;52.124;6.018;2023-04-24T04:31:49;25.17;;;14.90;;
47599;SDS011;33323;52.124;6.018;2023-04-24T04:34:17;23.65;;;14.55;;
47599;SDS011;33323;52.124;6.018;2023-04-24T04:36:44;29.48;;;17.10;;
47599;SDS011;33323;52.124;6.018;2023-04-24T04:39:40;28.30;;;17.63;;
47599;SDS011;33323;52.124;6.018;2023-04-24T04:42:30;29.27;;;17.67;;
47599;SDS011;33323;52.124;6.018;2023-04-24T04:44:58;28.80;;;18.40;;
47599;SDS011;33323;52.124;6.018;2023-04-24T04:47:36;35.80;;;19.55;;
47599;SDS011;33323;52.124;6.018;2023-04-24T04:50:04;30.35;;;19.02;;
47599;SDS011;33323;52.124;6.018;2023-04-24T04:52:31;33.25;;;19.70;;
47599;SDS011;33323;52.124;6.018;2023-04-24T04:55:09;36.42;;;20.08;;
47599;SDS011;33323;52.124;6.018;2023-04-24T04:58:03;36.00;;;19.58;;
47599;SDS011;33323;52.124;6.018;2023-04-24T05:00:30;30.15;;;17.95;;
47599;SDS011;33323;52.124;6.018;2023-04-24T05:05:47;32.33;;;18.52;;
47599;SDS011;33323;52.124;6.018;2023-04-24T05:08:16;29.23;;;18.55;;
47599;SDS011;33323;52.124;6.018;2023-04-24T05:10:52;31.25;;;17.92;;
47599;SDS011;33323;52.124;6.018;2023-04-24T05:13:21;33.65;;;19.95;;
47599;SDS011;33323;52.124;6.018;2023-04-24T05:18:34;27.15;;;15.48;;
47599;SDS011;33323;52.124;6.018;2023-04-24T05:21:01;22.95;;;14.13;;
47599;SDS011;33323;52.124;6.018;2023-04-24T05:23:29;21.40;;;12.93;;
47599;SDS011;33323;52.124;6.018;2023-04-24T05:25:56;17.75;;;12.18;;
47599;SDS011;33323;52.124;6.018;2023-04-24T05:28:23;21.05;;;12.98;;
47599;SDS011;33323;52.124;6.018;2023-04-24T05:31:03;19.23;;;12.18;;
47599;SDS011;33323;52.124;6.018;2023-04-24T05:33:30;19.90;;;12.02;;
47599;SDS011;33323;52.124;6.018;2023-04-24T05:35:58;17.67;;;10.77;;
47599;SDS011;33323;52.124;6.018;2023-04-24T05:38:25;15.15;;;9.88;;
47599;SDS011;33323;52.124;6.018;2023-04-24T05:40:53;16.50;;;9.50;;
47599;SDS011;33323;52.124;6.018;2023-04-24T05:43:20;15.63;;;9.70;;
47599;SDS011;33323;52.124;6.018;2023-04-24T05:45:48;18.27;;;9.85;;
47599;SDS011;33323;52.124;6.018;2023-04-24T05:48:17;13.48;;;9.45;;
47599;SDS011;33323;52.124;6.018;2023-04-24T05:50:44;14.32;;;8.90;;
47599;SDS011;33323;52.124;6.018;2023-04-24T05:53:11;15.70;;;9.70;;
47599;SDS011;33323;52.124;6.018;2023-04-24T05:55:38;14.32;;;9.20;;
47599;SDS011;33323;52.124;6.018;2023-04-24T05:58:06;18.20;;;10.35;;
47599;SDS011;33323;52.124;6.018;2023-04-24T06:00:35;13.13;;;8.38;;
47599;SDS011;33323;52.124;6.018;2023-04-24T06:03:06;11.98;;;8.25;;
47599;SDS011;33323;52.124;6.018;2023-04-24T06:05:34;14.65;;;9.07;;
47599;SDS011;33323;52.124;6.018;2023-04-24T06:08:02;11.57;;;7.53;;
47599;SDS011;33323;52.124;6.018;2023-04-24T06:10:35;14.30;;;7.93;;
47599;SDS011;33323;52.124;6.018;2023-04-24T06:13:04;11.85;;;7.80;;
47599;SDS011;33323;52.124;6.018;2023-04-24T06:15:34;12.32;;;7.20;;
47599;SDS011;33323;52.124;6.018;2023-04-24T06:18:11;13.20;;;7.95;;
47599;SDS011;33323;52.124;6.018;2023-04-24T06:20:40;14.25;;;8.73;;
47599;SDS011;33323;52.124;6.018;2023-04-24T06:23:08;12.43;;;8.13;;
47599;SDS011;33323;52.124;6.018;2023-04-24T06:25:36;12.05;;;7.22;;
47599;SDS011;33323;52.124;6.018;2023-04-24T06:28:04;9.63;;;6.63;;
47599;SDS011;33323;52.124;6.018;2023-04-24T06:30:31;10.43;;;6.60;;
47599;SDS011;33323;52.124;6.018;2023-04-24T06:32:59;11.73;;;6.25;;
47599;SDS011;33323;52.124;6.018;2023-04-24T06:35:35;10.68;;;6.97;;
47599;SDS011;33323;52.124;6.018;2023-04-24T06:38:04;9.32;;;5.93;;
47599;SDS011;33323;52.124;6.018;2023-04-24T06:40:32;14.02;;;6.55;;
47599;SDS011;33323;52.124;6.018;2023-04-24T06:42:59;8.52;;;5.32;;
47599;SDS011;33323;52.124;6.018;2023-04-24T06:45:29;7.60;;;4.85;;
47599;SDS011;33323;52.124;6.018;2023-04-24T06:47:57;5.82;;;4.50;;
47599;SDS011;33323;52.124;6.018;2023-04-24T06:50:24;5.35;;;3.45;;
47599;SDS011;33323;52.124;6.018;2023-04-24T06:52:51;5.47;;;3.35;;
47599;SDS011;33323;52.124;6.018;2023-04-24T06:55:18;4.72;;;2.85;;
47599;SDS011;33323;52.124;6.018;2023-04-24T06:57:45;4.55;;;3.05;;
47599;SDS011;33323;52.124;6.018;2023-04-24T07:00:13;5.03;;;3.08;;
47599;SDS011;33323;52.124;6.018;2023-04-24T07:02:40;5.63;;;2.92;;
47599;SDS011;33323;52.124;6.018;2023-04-24T07:05:07;5.00;;;2.60;;
47599;SDS011;33323;52.124;6.018;2023-04-24T07:07:35;3.63;;;2.15;;
47599;SDS011;33323;52.124;6.018;2023-04-24T07:10:04;3.88;;;2.33;;
47599;SDS011;33323;52.124;6.018;2023-04-24T07:12:32;2.90;;;2.10;;
47599;SDS011;33323;52.124;6.018;2023-04-24T07:15:00;5.43;;;2.10;;
47599;SDS011;33323;52.124;6.018;2023-04-24T07:17:27;3.92;;;1.98;;
47599;SDS011;33323;52.124;6.018;2023-04-24T07:19:54;3.45;;;2.10;;
47599;SDS011;33323;52.124;6.018;2023-04-24T07:22:21;2.47;;;1.77;;
47599;SDS011;33323;52.124;6.018;2023-04-24T07:24:49;2.63;;;1.80;;
47599;SDS011;33323;52.124;6.018;2023-04-24T07:27:16;2.22;;;1.40;;
47599;SDS011;33323;52.124;6.018;2023-04-24T07:29:43;2.80;;;1.63;;
47599;SDS011;33323;52.124;6.018;2023-04-24T07:32:11;2.47;;;1.52;;
47599;SDS011;33323;52.124;6.018;2023-04-24T07:34:38;2.25;;;1.35;;
47599;SDS011;33323;52.124;6.018;2023-04-24T07:37:05;2.50;;;1.45;;
47599;SDS011;33323;52.124;6.018;2023-04-24T07:39:32;2.90;;;1.60;;
47599;SDS011;33323;52.124;6.018;2023-04-24T07:41:59;2.97;;;1.65;;
47599;SDS011;33323;52.124;6.018;2023-04-24T07:44:27;2.17;;;1.63;;
47599;SDS011;33323;52.124;6.018;2023-04-24T07:46:55;1.45;;;1.05;;
47599;SDS011;33323;52.124;6.018;2023-04-24T07:49:23;2.75;;;1.95;;
47599;SDS011;33323;52.124;6.018;2023-04-24T07:51:52;1.95;;;1.35;;
47599;SDS011;33323;52.124;6.018;2023-04-24T07:54:19;1.52;;;1.00;;
47599;SDS011;33323;52.124;6.018;2023-04-24T07:56:46;2.75;;;1.25;;
47599;SDS011;33323;52.124;6.018;2023-04-24T07:59:13;2.42;;;1.73;;
47599;SDS011;33323;52.124;6.018;2023-04-24T08:01:40;4.10;;;1.90;;
47599;SDS011;33323;52.124;6.018;2023-04-24T08:04:07;3.88;;;2.33;;
47599;SDS011;33323;52.124;6.018;2023-04-24T08:06:35;4.45;;;3.08;;
47599;SDS011;33323;52.124;6.018;2023-04-24T08:09:02;4.45;;;3.08;;
47599;SDS011;33323;52.124;6.018;2023-04-24T08:11:29;11.00;;;3.47;;
47599;SDS011;33323;52.124;6.018;2023-04-24T08:13:56;5.40;;;3.78;;
47599;SDS011;33323;52.124;6.018;2023-04-24T08:16:24;4.57;;;3.05;;
47599;SDS011;33323;52.124;6.018;2023-04-24T08:18:51;7.57;;;3.30;;
47599;SDS011;33323;52.124;6.018;2023-04-24T08:21:19;5.82;;;3.47;;
47599;SDS011;33323;52.124;6.018;2023-04-24T08:23:47;9.57;;;4.22;;
47599;SDS011;33323;52.124;6.018;2023-04-24T08:26:14;6.00;;;3.70;;
47599;SDS011;33323;52.124;6.018;2023-04-24T08:28:41;7.40;;;4.80;;
47599;SDS011;33323;52.124;6.018;2023-04-24T08:31:09;6.95;;;4.82;;
47599;SDS011;33323;52.124;6.018;2023-04-24T08:33:36;9.43;;;5.25;;
47599;SDS011;33323;52.124;6.018;2023-04-24T08:36:03;10.38;;;5.45;;
47599;SDS011;33323;52.124;6.018;2023-04-24T08:38:32;9.27;;;5.45;;
47599;SDS011;33323;52.124;6.018;2023-04-24T08:41:01;10.65;;;5.18;;
47599;SDS011;33323;52.124;6.018;2023-04-24T08:43:28;10.18;;;5.13;;
47599;SDS011;33323;52.124;6.018;2023-04-24T08:45:56;9.68;;;5.35;;
47599;SDS011;33323;52.124;6.018;2023-04-24T08:48:23;8.48;;;4.97;;
47599;SDS011;33323;52.124;6.018;2023-04-24T08:50:58;11.35;;;5.05;;
47599;SDS011;33323;52.124;6.018;2023-04-24T08:53:26;7.35;;;5.55;;
47599;SDS011;33323;52.124;6.018;2023-04-24T08:55:54;12.93;;;6.10;;
47599;SDS011;33323;52.124;6.018;2023-04-24T08:58:25;9.05;;;5.72;;
47599;SDS011;33323;52.124;6.018;2023-04-24T09:00:56;12.25;;;6.22;;
47599;SDS011;33323;52.124;6.018;2023-04-24T09:03:25;13.73;;;5.60;;
47599;SDS011;33323;52.124;6.018;2023-04-24T09:05:55;12.18;;;5.80;;
47599;SDS011;33323;52.124;6.018;2023-04-24T09:08:24;10.15;;;5.57;;
47599;SDS011;33323;52.124;6.018;2023-04-24T09:10:52;8.63;;;5.57;;
47599;SDS011;33323;52.124;6.018;2023-04-24T09:13:20;9.63;;;5.75;;
47599;SDS011;33323;52.124;6.018;2023-04-24T09:15:47;12.75;;;5.95;;
47599;SDS011;33323;52.124;6.018;2023-04-24T09:18:14;11.85;;;5.28;;
47599;SDS011;33323;52.124;6.018;2023-04-24T09:21:01;8.18;;;3.70;;
47599;SDS011;33323;52.124;6.018;2023-04-24T09:23:35;7.95;;;3.20;;
47599;SDS011;33323;52.124;6.018;2023-04-24T09:26:02;6.40;;;2.95;;
47599;SDS011;33323;52.124;6.018;2023-04-24T09:28:37;7.53;;;2.70;;
47599;SDS011;33323;52.124;6.018;2023-04-24T09:31:12;8.52;;;2.75;;
47599;SDS011;33323;52.124;6.018;2023-04-24T09:33:54;6.13;;;2.08;;
47599;SDS011;33323;52.124;6.018;2023-04-24T09:36:31;5.20;;;2.17;;
47599;SDS011;33323;52.124;6.018;2023-04-24T09:39:05;5.70;;;2.60;;
47599;SDS011;33323;52.124;6.018;2023-04-24T09:41:47;5.68;;;2.33;;
47599;SDS011;33323;52.124;6.018;2023-04-24T09:44:22;6.70;;;1.70;;
47599;SDS011;33323;52.124;6.018;2023-04-24T09:46:53;8.27;;;2.85;;
47599;SDS011;33323;52.124;6.018;2023-04-24T09:49:26;10.45;;;3.15;;
47599;SDS011;33323;52.124;6.018;2023-04-24T09:52:03;12.20;;;3.13;;
47599;SDS011;33323;52.124;6.018;2023-04-24T09:54:38;11.05;;;4.22;;
47599;SDS011;33323;52.124;6.018;2023-04-24T09:57:09;9.43;;;4.22;;
47599;SDS011;33323;52.124;6.018;2023-04-24T09:59:41;15.02;;;3.88;;
47599;SDS011;33323;52.124;6.018;2023-04-24T10:02:17;11.48;;;3.28;;
47599;SDS011;33323;52.124;6.018;2023-04-24T10:04:55;13.95;;;3.40;;
47599;SDS011;33323;52.124;6.018;2023-04-24T10:07:26;12.52;;;2.88;;
47599;SDS011;33323;52.124;6.018;2023-04-24T10:09:54;19.42;;;4.80;;
47599;SDS011;33323;52.124;6.018;2023-04-24T10:12:22;11.20;;;3.65;;
47599;SDS011;33323;52.124;6.018;2023-04-24T10:14:50;14.70;;;3.03;;
47599;SDS011;33323;52.124;6.018;2023-04-24T10:17:17;14.52;;;4.70;;
47599;SDS011;33323;52.124;6.018;2023-04-24T10:19:47;9.13;;;2.75;;
47599;SDS011;33323;52.124;6.018;2023-04-24T10:22:14;9.90;;;2.05;;
47599;SDS011;33323;52.124;6.018;2023-04-24T10:24:44;10.55;;;2.22;;
47599;SDS011;33323;52.124;6.018;2023-04-24T10:27:13;7.13;;;2.55;;
47599;SDS011;33323;52.124;6.018;2023-04-24T10:29:41;7.50;;;2.25;;
47599;SDS011;33323;52.124;6.018;2023-04-24T10:32:11;9.23;;;2.33;;
47599;SDS011;33323;52.124;6.018;2023-04-24T10:34:38;11.52;;;3.00;;
47599;SDS011;33323;52.124;6.018;2023-04-24T10:37:05;8.85;;;1.70;;
47599;SDS011;33323;52.124;6.018;2023-04-24T10:39:32;3.72;;;2.15;;
47599;SDS011;33323;52.124;6.018;2023-04-24T10:42:01;6.90;;;1.73;;
47599;SDS011;33323;52.124;6.018;2023-04-24T10:44:35;9.25;;;2.10;;
47599;SDS011;33323;52.124;6.018;2023-04-24T10:47:03;5.93;;;2.17;;
47599;SDS011;33323;52.124;6.018;2023-04-24T10:49:31;7.40;;;1.50;;
47599;SDS011;33323;52.124;6.018;2023-04-24T10:52:02;9.75;;;1.73;;
47599;SDS011;33323;52.124;6.018;2023-04-24T10:54:41;5.43;;;1.27;;
47599;SDS011;33323;52.124;6.018;2023-04-24T10:59:51;6.57;;;2.78;;
47599;SDS011;33323;52.124;6.018;2023-04-24T11:02:39;12.13;;;2.50;;
47599;SDS011;33323;52.124;6.018;2023-04-24T11:05:10;12.27;;;2.13;;
47599;SDS011;33323;52.124;6.018;2023-04-24T11:08:25;17.65;;;4.32;;
47599;SDS011;33323;52.124;6.018;2023-04-24T11:13:25;8.60;;;2.58;;
47599;SDS011;33323;52.124;6.018;2023-04-24T11:16:11;6.88;;;2.60;;
47599;SDS011;33323;52.124;6.018;2023-04-24T11:18:41;7.28;;;1.92;;
47599;SDS011;33323;52.124;6.018;2023-04-24T11:21:16;4.93;;;1.60;;
47599;SDS011;33323;52.124;6.018;2023-04-24T11:23:45;6.80;;;1.98;;
47599;SDS011;33323;52.124;6.018;2023-04-24T11:26:16;7.50;;;2.05;;
47599;SDS011;33323;52.124;6.018;2023-04-24T11:28:47;9.02;;;1.95;;
47599;SDS011;33323;52.124;6.018;2023-04-24T11:31:34;9.07;;;3.00;;
47599;SDS011;33323;52.124;6.018;2023-04-24T11:34:15;2.75;;;1.33;;
47599;SDS011;33323;52.124;6.018;2023-04-24T11:36:43;4.97;;;2.55;;
47599;SDS011;33323;52.124;6.018;2023-04-24T11:39:11;11.05;;;1.63;;
47599;SDS011;33323;52.124;6.018;2023-04-24T11:41:39;4.07;;;1.10;;
47599;SDS011;33323;52.124;6.018;2023-04-24T11:44:08;2.13;;;0.95;;
47599;SDS011;33323;52.124;6.018;2023-04-24T11:46:37;3.67;;;0.85;;
47599;SDS011;33323;52.124;6.018;2023-04-24T11:49:08;2.70;;;0.98;;
47599;SDS011;33323;52.124;6.018;2023-04-24T11:51:35;2.50;;;0.98;;
47599;SDS011;33323;52.124;6.018;2023-04-24T11:54:18;3.60;;;1.70;;
47599;SDS011;33323;52.124;6.018;2023-04-24T11:56:48;6.18;;;2.05;;
47599;SDS011;33323;52.124;6.018;2023-04-24T11:59:16;2.20;;;0.95;;
47599;SDS011;33323;52.124;6.018;2023-04-24T12:01:44;3.63;;;0.98;;
47599;SDS011;33323;52.124;6.018;2023-04-24T12:04:12;2.50;;;0.90;;
47599;SDS011;33323;52.124;6.018;2023-04-24T12:06:42;2.20;;;1.10;;
47599;SDS011;33323;52.124;6.018;2023-04-24T12:09:26;2.47;;;0.80;;
47599;SDS011;33323;52.124;6.018;2023-04-24T12:11:54;5.22;;;1.25;;
47599;SDS011;33323;52.124;6.018;2023-04-24T12:14:24;3.03;;;0.95;;
47599;SDS011;33323;52.124;6.018;2023-04-24T12:16:51;4.43;;;1.23;;
47599;SDS011;33323;52.124;6.018;2023-04-24T12:19:20;5.05;;;1.10;;
47599;SDS011;33323;52.124;6.018;2023-04-24T12:21:58;7.65;;;1.55;;
47599;SDS011;33323;52.124;6.018;2023-04-24T12:24:28;2.03;;;1.13;;
47599;SDS011;33323;52.124;6.018;2023-04-24T12:26:56;1.27;;;0.88;;
47599;SDS011;33323;52.124;6.018;2023-04-24T12:29:24;5.00;;;1.15;;
47599;SDS011;33323;52.124;6.018;2023-04-24T12:31:51;2.95;;;0.70;;
47599;SDS011;33323;52.124;6.018;2023-04-24T12:34:20;2.15;;;0.90;;
47599;SDS011;33323;52.124;6.018;2023-04-24T12:36:49;10.38;;;2.03;;
47599;SDS011;33323;52.124;6.018;2023-04-24T12:39:17;3.90;;;1.45;;
47599;SDS011;33323;52.124;6.018;2023-04-24T12:41:55;3.95;;;0.65;;
47599;SDS011;33323;52.124;6.018;2023-04-24T12:44:30;3.58;;;1.05;;
47599;SDS011;33323;52.124;6.018;2023-04-24T12:47:01;5.75;;;0.88;;
47599;SDS011;33323;52.124;6.018;2023-04-24T12:49:30;7.80;;;1.20;;
47599;SDS011;33323;52.124;6.018;2023-04-24T12:51:57;4.30;;;0.93;;
47599;SDS011;33323;52.124;6.018;2023-04-24T12:54:24;2.72;;;0.93;;
47599;SDS011;33323;52.124;6.018;2023-04-24T12:56:52;6.78;;;0.88;;
47599;SDS011;33323;52.124;6.018;2023-04-24T12:59:19;4.03;;;1.13;;
47599;SDS011;33323;52.124;6.018;2023-04-24T13:01:46;3.38;;;0.70;;
47599;SDS011;33323;52.124;6.018;2023-04-24T13:04:13;3.00;;;0.47;;
47599;SDS011;33323;52.124;6.018;2023-04-24T13:06:40;4.25;;;1.10;;
47599;SDS011;33323;52.124;6.018;2023-04-24T13:09:07;3.50;;;0.63;;
47599;SDS011;33323;52.124;6.018;2023-04-24T13:11:35;1.45;;;0.75;;
47599;SDS011;33323;52.124;6.018;2023-04-24T13:14:02;1.95;;;0.50;;
47599;SDS011;33323;52.124;6.018;2023-04-24T13:16:29;3.45;;;0.70;;
47599;SDS011;33323;52.124;6.018;2023-04-24T13:18:56;3.78;;;0.70;;
47599;SDS011;33323;52.124;6.018;2023-04-24T13:21:23;3.25;;;1.10;;
47599;SDS011;33323;52.124;6.018;2023-04-24T13:23:50;7.60;;;1.25;;
47599;SDS011;33323;52.124;6.018;2023-04-24T13:26:18;5.95;;;1.05;;
47599;SDS011;33323;52.124;6.018;2023-04-24T13:28:45;3.28;;;0.70;;
47599;SDS011;33323;52.124;6.018;2023-04-24T13:31:15;5.25;;;0.77;;
47599;SDS011;33323;52.124;6.018;2023-04-24T13:33:42;3.03;;;0.80;;
47599;SDS011;33323;52.124;6.018;2023-04-24T13:36:09;2.17;;;0.98;;
47599;SDS011;33323;52.124;6.018;2023-04-24T13:38:36;6.72;;;1.05;;
47599;SDS011;33323;52.124;6.018;2023-04-24T13:41:04;2.10;;;0.80;;
47599;SDS011;33323;52.124;6.018;2023-04-24T13:43:31;6.88;;;1.65;;
47599;SDS011;33323;52.124;6.018;2023-04-24T13:45:58;7.70;;;0.90;;
47599;SDS011;33323;52.124;6.018;2023-04-24T13:48:28;7.35;;;1.33;;
47599;SDS011;33323;52.124;6.018;2023-04-24T13:50:56;10.23;;;1.42;;
47599;SDS011;33323;52.124;6.018;2023-04-24T13:53:23;5.55;;;1.83;;
47599;SDS011;33323;52.124;6.018;2023-04-24T13:55:50;3.25;;;0.88;;
47599;SDS011;33323;52.124;6.018;2023-04-24T13:58:18;5.80;;;1.00;;
47599;SDS011;33323;52.124;6.018;2023-04-24T14:00:45;3.60;;;1.30;;
47599;SDS011;33323;52.124;6.018;2023-04-24T14:03:12;6.82;;;1.52;;
47599;SDS011;33323;52.124;6.018;2023-04-24T14:05:40;6.30;;;1.77;;
47599;SDS011;33323;52.124;6.018;2023-04-24T14:08:07;7.55;;;1.45;;
47599;SDS011;33323;52.124;6.018;2023-04-24T14:10:34;6.78;;;2.30;;
47599;SDS011;33323;52.124;6.018;2023-04-24T14:13:01;12.93;;;1.67;;
47599;SDS011;33323;52.124;6.018;2023-04-24T14:15:28;6.70;;;2.22;;
47599;SDS011;33323;52.124;6.018;2023-04-24T14:17:56;8.95;;;2.03;;
47599;SDS011;33323;52.124;6.018;2023-04-24T14:20:23;6.80;;;1.83;;
47599;SDS011;33323;52.124;6.018;2023-04-24T14:22:50;5.25;;;1.52;;
47599;SDS011;33323;52.124;6.018;2023-04-24T14:25:17;11.00;;;2.35;;
47599;SDS011;33323;52.124;6.018;2023-04-24T14:27:44;16.73;;;3.72;;
47599;SDS011;33323;52.124;6.018;2023-04-24T14:30:13;6.15;;;2.17;;
47599;SDS011;33323;52.124;6.018;2023-04-24T14:32:41;6.18;;;1.70;;
47599;SDS011;33323;52.124;6.018;2023-04-24T14:35:09;10.40;;;2.17;;
47599;SDS011;33323;52.124;6.018;2023-04-24T14:37:36;11.55;;;1.77;;
47599;SDS011;33323;52.124;6.018;2023-04-24T14:40:03;9.88;;;1.60;;
47599;SDS011;33323;52.124;6.018;2023-04-24T14:42:36;9.40;;;1.80;;
47599;SDS011;33323;52.124;6.018;2023-04-24T14:45:04;11.93;;;3.47;;
47599;SDS011;33323;52.124;6.018;2023-04-24T14:47:31;9.38;;;2.40;;
47599;SDS011;33323;52.124;6.018;2023-04-24T14:49:59;8.70;;;1.80;;
47599;SDS011;33323;52.124;6.018;2023-04-24T14:52:26;6.25;;;1.70;;
47599;SDS011;33323;52.124;6.018;2023-04-24T14:54:53;9.50;;;1.60;;
47599;SDS011;33323;52.124;6.018;2023-04-24T14:57:20;6.07;;;2.38;;
47599;SDS011;33323;52.124;6.018;2023-04-24T14:59:48;10.35;;;1.80;;
47599;SDS011;33323;52.124;6.018;2023-04-24T15:02:16;7.53;;;2.05;;
47599;SDS011;33323;52.124;6.018;2023-04-24T15:04:46;10.38;;;2.17;;
47599;SDS011;33323;52.124;6.018;2023-04-24T15:07:13;7.57;;;2.28;;